Terminal Aerodrome Forecast
Issued by NWS

Home | Current Version | Previous Version | Text Only | Print | Product List | Glossary On
Versions: 1 2 3 4 5 6 7 8 9 10 11 12
000
FTUS45 KSLC 140741 AAA
TAFSGU
TAF AMD
KSGU 140741Z 1408/1506 14010KT P6SM SKC
     FM141000 11012G18KT P6SM SKC
     FM141300 04015KT P6SM SKC
     FM141600 10008KT P6SM SKC
     FM142200 06007KT P6SM SKC=

USA.gov is the U.S. government's official web portal to all federal, state and local government web resources and services.